Terminal Aerodrome Forecast
Issued by NWS Lake Charles, LA

Home | Current Version | Previous Version | Text Only | Print | Product List | Glossary On
Versions: 1 2 3 4 5 6 7 8 9 10 11 12 13 14 15 16 17 18 19 20 21
000
FTUS44 KLCH 220900 AAA
TAFAEX
TAF AMD
KAEX 220929Z 2209/2306 16004KT 2SM BR OVC002
     FM221600 18010KT 6SM BR SCT004 BKN014 OVC025
     FM230000 23006KT P6SM SCT014 OVC025=

USA.gov is the U.S. government's official web portal to all federal, state and local government web resources and services.